Oldtown, Kentucky
Current Conditions -  °F | °C
As of 6:51 PM on Wednesday 24 Dec 2014 (Local Time) from KHTS Reporting Station
Light Rain Light Rain  
Wind Chill: 42°   Ceiling: 2000
Heat Index: 48°   Visibility: 10mi
Dew Point: 44°   Wind: 15mph
Humidity: 86%   Direction: 250°WSW
Pressure: 29.58"   Gusts: 30mph
Location:  38.5266°N, 82.9452°W
Report Text: KHTS 242351Z 25013G26KT 10SM -RA BKN020 BKN028 OVC039 09/07 A2958 RMK AO2 PK WND 25030/2258 RAB19 SLP015 P0002 60005 T00890067 10183 20089 53060
Loading
Personal Weather Stations






























Interactive Weather Map New forecast layout! Learn more

10-Day Weather Forecast

Advertisements
Track Severe Weather on mobile